Time;durP1;ratioP1;P1;durP2;ratioP2;P2;SDS_P1;SDS_P2;PMS_P1;PMS_P2;Temp;Humidity;BMP_temperature;BMP_pressure;BME280_temperature;BME280_humidity;BME280_pressure;Samples;Min_cycle;Max_cycle;Signal;HPM_P1;HPM_P2
2022/05/12 00:00:32;;;;;;;2.35;2.05;;;;;;;15.37;45.29;94322.94;4962358;28;20047;-73
2022/05/12 00:02:58;;;;;;;2.92;2.25;;;;;;;15.35;45.34;94324.41;4975318;28;20395;-73
2022/05/12 00:05:24;;;;;;;3.08;2.72;;;;;;;15.32;45.47;94325.81;4969740;28;20030;-73
2022/05/12 00:07:50;;;;;;;3.30;2.10;;;;;;;15.27;45.58;94307.28;4968861;28;20065;-73
2022/05/12 00:10:20;;;;;;;4.25;2.17;;;;;;;15.31;45.77;94324.25;4969373;28;20517;-73
2022/05/12 00:12:46;;;;;;;4.25;2.03;;;;;;;15.19;45.63;94300.09;4971471;28;20073;-72
2022/05/12 00:15:19;;;;;;;4.93;2.40;;;;;;;15.15;45.63;94309.91;4976630;28;20042;-73
2022/05/12 00:17:44;;;;;;;3.65;2.70;;;;;;;15.03;45.92;94286.53;4993046;28;20047;-73
2022/05/12 00:20:11;;;;;;;3.67;2.42;;;;;;;15.24;46.06;94318.66;4985109;28;20321;-73
2022/05/12 00:22:37;;;;;;;5.45;2.40;;;;;;;15.21;45.98;94324.66;4979856;28;20038;-73
2022/05/12 00:25:10;;;;;;;3.13;2.30;;;;;;;15.08;46.01;94309.66;4967522;28;20042;-72
2022/05/12 00:27:35;;;;;;;2.90;2.38;;;;;;;15.04;45.94;94304.19;4973944;28;20041;-74
2022/05/12 00:30:00;;;;;;;4.88;2.50;;;;;;;15.14;45.86;94323.63;4969601;28;20045;-73
2022/05/12 00:32:26;;;;;;;3.33;2.20;;;;;;;15.10;45.88;94318.16;4975448;28;20015;-73
2022/05/12 00:34:51;;;;;;;4.18;2.30;;;;;;;14.96;46.23;94310.38;4986640;28;20096;-73
2022/05/12 00:37:17;;;;;;;3.63;2.58;;;;;;;15.03;46.22;94317.88;4993227;28;20041;-73
2022/05/12 00:39:42;;;;;;;5.97;2.97;;;;;;;14.90;46.20;94302.88;4991009;28;20069;-73
2022/05/12 00:42:07;;;;;;;5.20;2.58;;;;;;;15.00;46.16;94313.19;4984277;28;20042;-75
2022/05/12 00:44:33;;;;;;;2.63;2.40;;;;;;;14.99;46.37;94311.63;4992393;28;20052;-74
2022/05/12 00:46:58;;;;;;;3.45;2.45;;;;;;;14.99;46.37;94319.66;4994655;28;20585;-73
2022/05/12 00:49:34;;;;;;;3.88;2.40;;;;;;;14.88;46.21;94311.25;4983855;28;20415;-73
2022/05/12 00:52:08;;;;;;;3.10;2.38;;;;;;;14.79;46.22;94301.72;4990871;28;20037;-72
2022/05/12 00:54:44;;;;;;;2.50;2.17;;;;;;;14.75;46.19;94292.78;4985140;28;20038;-72
2022/05/12 00:57:12;;;;;;;2.83;2.05;;;;;;;14.87;46.11;94315.03;4976750;28;20068;-72
2022/05/12 00:59:38;;;;;;;4.78;2.60;;;;;;;14.79;46.25;94307.84;4988007;28;20036;-72
2022/05/12 01:02:08;;;;;;;3.28;2.40;;;;;;;14.85;46.18;94311.13;4968842;28;20038;-73
2022/05/12 01:04:34;;;;;;;5.45;2.90;;;;;;;14.79;46.22;94323.13;4978075;28;20053;-72
2022/05/12 01:06:59;;;;;;;3.40;2.80;;;;;;;14.77;46.24;94330.69;4980191;28;20354;-73
2022/05/12 01:09:28;;;;;;;3.53;2.28;;;;;;;14.80;46.32;94330.84;4965982;28;21834;-72
2022/05/12 01:11:54;;;;;;;2.63;2.00;;;;;;;14.76;46.32;94329.16;4974890;28;20503;-73
2022/05/12 01:14:20;;;;;;;2.33;2.13;;;;;;;14.74;46.55;94326.00;4981855;28;20033;-73
2022/05/12 01:16:53;;;;;;;3.22;2.40;;;;;;;14.69;46.83;94335.00;4986433;28;20046;-73
2022/05/12 01:19:32;;;;;;;3.97;2.60;;;;;;;14.64;46.71;94323.72;5011944;28;20030;-73
2022/05/12 01:21:59;;;;;;;11.38;3.17;;;;;;;14.70;46.79;94335.81;4983752;28;20065;-72
2022/05/12 01:24:42;;;;;;;3.30;2.50;;;;;;;14.64;46.85;94329.06;4985813;28;20401;-74
2022/05/12 01:27:19;;;;;;;2.42;2.22;;;;;;;14.10;46.53;94254.00;4990936;28;20041;-73
2022/05/12 01:29:52;;;;;;;6.18;2.97;;;;;;;14.59;46.75;94333.50;4989527;28;20030;-73
2022/05/12 01:32:19;;;;;;;3.97;2.58;;;;;;;14.57;46.89;94338.38;4967584;28;20043;-73
2022/05/12 01:34:45;;;;;;;4.05;2.83;;;;;;;14.41;46.96;94315.19;4961966;28;20597;-72
2022/05/12 01:37:11;;;;;;;4.43;2.70;;;;;;;14.40;47.06;94311.72;4968972;28;20891;-73
2022/05/12 01:39:37;;;;;;;4.53;2.65;;;;;;;14.44;47.18;94334.03;4966932;28;20023;-72
2022/05/12 01:42:03;;;;;;;6.53;2.70;;;;;;;14.44;47.24;94338.59;4965429;28;20030;-73
2022/05/12 01:44:29;;;;;;;3.90;2.45;;;;;;;14.40;47.22;94335.81;4970479;28;20014;-72
2022/05/12 01:46:56;;;;;;;3.55;2.47;;;;;;;14.39;47.25;94326.19;4965626;28;20054;-73
2022/05/12 01:49:22;;;;;;;5.88;2.70;;;;;;;14.27;47.61;94320.00;4969385;28;20038;-73
2022/05/12 01:51:54;;;;;;;7.30;3.45;;;;;;;14.34;47.32;94318.34;4967198;28;20535;-73
2022/05/12 01:54:20;;;;;;;3.35;2.47;;;;;;;14.33;47.65;94327.50;4968587;28;20046;-73
2022/05/12 01:56:45;;;;;;;3.17;2.65;;;;;;;14.25;47.56;94325.66;4962136;28;20080;-71
2022/05/12 01:59:11;;;;;;;3.33;2.70;;;;;;;14.25;47.79;94333.69;4969331;28;20035;-72
2022/05/12 02:01:36;;;;;;;3.10;2.38;;;;;;;14.14;47.76;94313.75;4969151;28;20625;-73
2022/05/12 02:04:05;;;;;;;4.07;2.67;;;;;;;14.27;47.83;94339.50;4968826;28;20384;-74
2022/05/12 02:06:31;;;;;;;3.33;2.25;;;;;;;14.18;47.67;94336.06;4957810;28;20059;-73
2022/05/12 02:08:57;;;;;;;3.58;2.85;;;;;;;14.19;48.07;94341.09;4974280;28;20509;-73
2022/05/12 02:11:23;;;;;;;4.70;2.97;;;;;;;14.24;47.83;94340.13;4963456;28;20386;-73
2022/05/12 02:13:48;;;;;;;2.92;2.53;;;;;;;14.03;47.89;94323.25;4968200;28;20073;-73
2022/05/12 02:16:13;;;;;;;4.00;2.88;;;;;;;14.07;48.05;94340.22;4967474;28;20058;-75
2022/05/12 02:18:39;;;;;;;3.63;2.78;;;;;;;14.05;48.30;94345.91;4972155;28;21041;-73
2022/05/12 02:21:05;;;;;;;6.57;2.97;;;;;;;13.96;47.92;94317.63;4961753;28;20030;-73
2022/05/12 02:23:30;;;;;;;3.20;2.72;;;;;;;13.97;47.95;94327.22;4964125;28;20030;-73
2022/05/12 02:25:55;;;;;;;4.25;2.92;;;;;;;14.16;47.89;94349.78;4968953;28;20741;-74
2022/05/12 02:28:21;;;;;;;4.38;2.72;;;;;;;14.07;48.14;94350.94;4966806;28;20034;-72
2022/05/12 02:30:46;;;;;;;4.43;2.65;;;;;;;13.91;48.26;94339.19;4970332;28;20126;-73
2022/05/12 02:33:12;;;;;;;3.78;3.17;;;;;;;13.93;48.59;94355.72;4965929;28;20034;-73
2022/05/12 02:35:39;;;;;;;3.40;2.65;;;;;;;13.92;48.36;94354.91;4971712;28;20145;-74
2022/05/12 02:38:06;;;;;;;5.72;3.40;;;;;;;13.87;48.70;94346.28;4968502;28;20077;-73
2022/05/12 02:40:31;;;;;;;5.63;3.22;;;;;;;13.67;48.98;94332.53;4964219;28;20173;-72
2022/05/12 02:42:57;;;;;;;3.63;2.70;;;;;;;13.68;48.87;94333.31;4963557;28;20403;-74
2022/05/12 02:45:23;;;;;;;5.40;3.22;;;;;;;13.81;48.86;94352.91;4974419;28;20618;-74
2022/05/12 02:47:48;;;;;;;3.78;3.28;;;;;;;13.62;48.80;94324.66;4958445;28;20454;-73
2022/05/12 02:50:16;;;;;;;4.15;2.95;;;;;;;13.80;48.72;94346.78;4972794;28;20069;-73
2022/05/12 02:52:42;;;;;;;4.65;3.30;;;;;;;13.74;48.96;94348.84;4961895;28;20129;-73
2022/05/12 02:55:08;;;;;;;3.08;2.65;;;;;;;13.77;48.91;94346.63;4962934;28;20060;-73
2022/05/12 02:57:34;;;;;;;3.25;2.70;;;;;;;13.70;48.81;94342.56;4964021;28;20506;-73
2022/05/12 02:59:59;;;;;;;3.55;2.55;;;;;;;13.52;49.13;94326.88;4969501;28;20030;-74
2022/05/12 03:02:24;;;;;;;4.68;2.70;;;;;;;13.69;48.63;94340.97;4961870;28;20034;-73
2022/05/12 03:04:50;;;;;;;4.00;2.97;;;;;;;13.59;48.77;94338.66;4974220;28;20042;-72
2022/05/12 03:07:15;;;;;;;4.18;2.67;;;;;;;13.71;48.77;94354.81;4967584;28;20031;-73
2022/05/12 03:09:41;;;;;;;3.13;2.80;;;;;;;13.68;48.87;94360.81;4963749;28;20043;-73
2022/05/12 03:12:06;;;;;;;5.35;3.30;;;;;;;13.67;48.95;94361.91;4971096;28;20041;-72
2022/05/12 03:14:32;;;;;;;5.70;2.80;;;;;;;13.54;48.97;94351.41;4967895;28;20475;-73
2022/05/12 03:16:57;;;;;;;3.80;2.65;;;;;;;13.55;49.63;94364.41;4965953;28;20085;-73
2022/05/12 03:19:23;;;;;;;4.05;3.40;;;;;;;13.48;49.48;94361.47;4970981;28;20185;-73
2022/05/12 03:21:49;;;;;;;4.15;3.58;;;;;;;13.50;49.70;94361.91;4962600;28;20035;-73
2022/05/12 03:24:16;;;;;;;5.22;3.22;;;;;;;13.37;49.63;94349.53;4973522;28;20129;-73
2022/05/12 03:26:42;;;;;;;4.93;2.63;;;;;;;13.49;49.54;94373.72;4964480;28;20389;-74
2022/05/12 03:29:07;;;;;;;3.15;2.78;;;;;;;13.42;49.79;94373.41;4971823;28;20042;-74
2022/05/12 03:31:33;;;;;;;6.40;3.22;;;;;;;13.43;49.63;94380.34;4966491;28;20041;-75
2022/05/12 03:34:00;;;;;;;5.18;2.85;;;;;;;13.48;49.87;94385.50;4973531;28;20085;-73
2022/05/12 03:36:25;;;;;;;5.40;3.30;;;;;;;13.34;49.94;94371.56;4974813;28;20046;-74
2022/05/12 03:38:51;;;;;;;4.45;2.95;;;;;;;13.41;50.08;94387.06;4969686;28;20250;-74
2022/05/12 03:41:16;;;;;;;6.05;3.05;;;;;;;13.47;50.11;94396.50;4970564;28;20112;-74
2022/05/12 03:46:25;;;;;;;3.85;2.83;;;;;;;13.42;50.62;94405.47;4973134;28;20065;-73
2022/05/12 03:48:51;;;;;;;7.65;3.63;;;;;;;13.48;50.36;94409.56;4967091;28;20700;-74
2022/05/12 03:51:18;;;;;;;9.23;4.93;;;;;;;13.51;50.43;94398.22;4973225;28;20038;-74
2022/05/12 03:53:43;;;;;;;7.20;4.28;;;;;;;13.41;50.99;94376.38;4966283;28;20514;-74
2022/05/12 03:56:09;;;;;;;7.43;4.47;;;;;;;13.58;50.83;94397.75;4971884;28;20038;-74
2022/05/12 03:58:35;;;;;;;6.75;4.57;;;;;;;13.57;50.79;94388.16;4964512;28;20536;-75
2022/05/12 04:01:02;;;;;;;6.82;4.65;;;;;;;13.66;51.08;94399.66;4973549;28;20034;-74
2022/05/12 04:03:28;;;;;;;6.88;4.13;;;;;;;13.52;51.33;94388.31;4970209;28;20392;-75
2022/05/12 04:05:55;;;;;;;7.43;4.90;;;;;;;13.47;51.91;94412.53;4975879;28;20033;-73
2022/05/12 04:08:21;;;;;;;11.23;5.65;;;;;;;13.54;51.32;94391.47;4967464;28;20015;-74
2022/05/12 04:10:49;;;;;;;7.95;5.22;;;;;;;13.88;50.97;94409.38;4975379;28;20129;-74
2022/05/12 04:13:16;;;;;;;11.43;6.03;;;;;;;13.80;50.81;94404.81;4961763;28;20034;-74
2022/05/12 04:15:41;;;;;;;11.73;5.78;;;;;;;13.90;50.95;94410.59;4976830;28;20070;-74
2022/05/12 04:18:07;;;;;;;6.57;4.03;;;;;;;13.92;50.46;94402.25;4962248;28;20717;-74
2022/05/12 04:20:34;;;;;;;6.68;4.97;;;;;;;13.95;50.64;94409.63;4969226;28;20442;-74
2022/05/12 04:23:00;;;;;;;8.60;4.70;;;;;;;14.06;50.47;94413.53;4971807;28;20038;-74
2022/05/12 04:25:26;;;;;;;4.72;4.20;;;;;;;14.09;49.86;94407.53;4965130;28;20046;-73
2022/05/12 04:27:52;;;;;;;5.82;4.35;;;;;;;14.15;49.83;94407.06;4974472;28;20034;-75
2022/05/12 04:30:20;;;;;;;6.63;4.13;;;;;;;14.18;49.91;94400.25;4963663;28;20045;-73
2022/05/12 04:32:46;;;;;;;5.93;4.93;;;;;;;14.34;49.67;94390.59;4967351;28;20018;-74
2022/05/12 04:35:14;;;;;;;6.38;4.53;;;;;;;14.33;49.70;94410.44;4967820;28;20050;-74
2022/05/12 04:37:51;;;;;;;9.35;4.07;;;;;;;14.56;48.89;94413.69;4969456;28;20039;-74
2022/05/12 04:40:21;;;;;;;7.95;4.60;;;;;;;14.70;48.76;94418.78;4972484;28;20101;-75
2022/05/12 04:42:48;;;;;;;8.57;5.57;;;;;;;14.69;49.09;94425.25;4976339;28;20034;-75
2022/05/12 04:45:14;;;;;;;9.05;6.65;;;;;;;14.78;49.72;94425.97;4989949;28;20506;-74
2022/05/12 04:47:41;;;;;;;9.32;6.75;;;;;;;14.77;49.46;94405.66;4988967;28;20049;-74
2022/05/12 04:50:09;;;;;;;12.00;6.38;;;;;;;14.17;51.25;94417.44;4991398;28;20072;-74
2022/05/12 04:52:35;;;;;;;10.02;7.10;;;;;;;14.41;51.36;94419.56;4994525;28;20042;-74
2022/05/12 04:55:00;;;;;;;9.02;5.95;;;;;;;14.78;49.52;94437.47;4990843;28;20123;-75
2022/05/12 04:57:25;;;;;;;9.82;6.50;;;;;;;14.83;49.12;94415.09;4991009;28;20518;-74
2022/05/12 04:59:55;;;;;;;7.30;6.35;;;;;;;14.97;49.25;94420.97;4975018;28;20126;-73
2022/05/12 05:02:21;;;;;;;10.73;6.82;;;;;;;15.02;49.76;94444.91;4974120;28;20514;-74
2022/05/12 05:04:47;;;;;;;10.82;6.60;;;;;;;14.58;50.47;94435.53;4976850;28;20046;-74
2022/05/12 05:07:13;;;;;;;9.40;6.07;;;;;;;14.96;49.63;94432.81;4972483;28;20442;-74
2022/05/12 05:09:41;;;;;;;10.15;7.10;;;;;;;15.12;48.79;94436.47;4969549;28;20030;-74
2022/05/12 05:12:06;;;;;;;13.38;7.38;;;;;;;15.24;48.55;94441.91;4975757;28;20060;-74
2022/05/12 05:14:32;;;;;;;10.38;6.05;;;;;;;15.39;48.21;94435.19;4967047;28;20026;-74
2022/05/12 05:16:57;;;;;;;11.32;7.40;;;;;;;15.56;47.19;94428.91;4966664;28;20652;-74
2022/05/12 05:19:23;;;;;;;16.77;8.05;;;;;;;15.69;47.54;94442.06;4974077;28;20066;-75
2022/05/12 05:21:48;;;;;;;15.43;7.90;;;;;;;15.85;47.41;94442.19;4963134;28;20505;-74
2022/05/12 05:24:13;;;;;;;11.13;6.60;;;;;;;15.77;47.71;94429.66;4977446;28;20050;-75
2022/05/12 05:26:39;;;;;;;10.73;7.38;;;;;;;15.62;48.42;94414.97;4981088;28;20030;-75
2022/05/12 05:29:04;;;;;;;15.45;7.63;;;;;;;15.27;49.38;94435.09;4976937;28;20042;-74
2022/05/12 05:31:30;;;;;;;9.95;7.75;;;;;;;15.09;49.49;94441.72;4968226;28;20415;-73
2022/05/12 05:33:56;;;;;;;14.95;8.13;;;;;;;15.40;49.59;94445.56;4963969;28;20046;-74
2022/05/12 05:36:22;;;;;;;11.70;8.25;;;;;;;15.66;49.06;94423.13;4983611;28;20137;-74
2022/05/12 05:38:47;;;;;;;13.32;7.68;;;;;;;15.21;49.68;94421.13;4971258;28;20025;-74
2022/05/12 05:41:13;;;;;;;11.60;8.15;;;;;;;15.23;49.94;94444.91;4987991;28;20041;-74
2022/05/12 05:43:39;;;;;;;14.95;7.45;;;;;;;15.35;49.91;94443.06;4982953;28;20041;-75
2022/05/12 05:46:05;;;;;;;11.52;7.75;;;;;;;15.62;48.90;94444.47;4987495;28;20144;-74
2022/05/12 05:48:31;;;;;;;14.07;8.15;;;;;;;15.72;48.91;94427.97;4986232;28;20034;-74
2022/05/12 05:53:42;;;;;;;12.82;7.22;;;;;;;15.92;48.14;94434.41;4983379;28;20284;-74
2022/05/12 05:56:17;;;;;;;12.57;8.02;;;;;;;16.09;47.17;94423.47;4992224;28;20041;-74
2022/05/12 05:58:44;;;;;;;8.15;6.47;;;;;;;16.37;46.69;94439.78;4962189;28;20820;-75
2022/05/12 06:01:10;;;;;;;12.82;7.53;;;;;;;16.55;45.89;94445.72;4964447;28;20205;-74
2022/05/12 06:03:36;;;;;;;10.65;6.57;;;;;;;16.49;46.84;94442.47;4965415;28;20600;-74
2022/05/12 06:06:02;;;;;;;8.82;6.72;;;;;;;16.42;46.80;94452.22;4969436;28;20117;-74
2022/05/12 06:08:27;;;;;;;9.50;7.03;;;;;;;16.52;46.13;94424.91;4965004;28;20080;-73
2022/05/12 06:10:53;;;;;;;12.10;6.28;;;;;;;16.74;45.80;94441.34;4964038;28;20085;-75
2022/05/12 06:13:18;;;;;;;8.07;6.70;;;;;;;16.98;45.65;94443.25;4963741;28;20104;-74
2022/05/12 06:15:44;;;;;;;15.57;7.00;;;;;;;16.03;46.56;94440.94;4967983;28;20038;-74
2022/05/12 06:18:13;;;;;;;10.77;7.43;;;;;;;15.99;47.34;94447.28;4950015;28;20128;-75
2022/05/12 06:20:40;;;;;;;13.38;7.40;;;;;;;16.08;47.50;94421.94;4967565;28;20805;-74
2022/05/12 06:23:05;;;;;;;18.63;8.05;;;;;;;16.60;45.97;94438.22;4974232;28;20137;-75
2022/05/12 06:25:31;;;;;;;11.15;7.30;;;;;;;16.80;45.84;94423.13;4972535;28;20057;-75
2022/05/12 06:27:56;;;;;;;13.88;7.47;;;;;;;17.01;44.92;94410.31;4964542;28;20071;-75
2022/05/12 06:30:22;;;;;;;14.75;8.15;;;;;;;17.28;44.88;94422.28;4966467;28;20038;-74
2022/05/12 06:32:47;;;;;;;11.30;7.93;;;;;;;17.55;44.05;94423.44;4968603;28;20530;-75
2022/05/12 06:35:16;;;;;;;14.32;8.13;;;;;;;17.36;44.55;94444.75;4959415;28;20403;-74
2022/05/12 06:37:42;;;;;;;9.98;6.80;;;;;;;17.26;44.99;94442.56;4965826;28;20038;-74
2022/05/12 06:40:09;;;;;;;12.88;7.97;;;;;;;16.65;45.80;94445.28;4966960;28;20600;-74
2022/05/12 06:42:35;;;;;;;12.48;7.85;;;;;;;17.11;45.14;94442.09;4963446;28;20573;-75
2022/05/12 06:45:01;;;;;;;13.10;7.72;;;;;;;17.18;45.51;94453.09;4961499;28;20352;-75
2022/05/12 06:47:27;;;;;;;15.77;8.82;;;;;;;17.51;44.36;94441.34;4963149;28;20050;-74
2022/05/12 06:49:53;;;;;;;10.27;7.88;;;;;;;17.21;44.62;94426.69;4965954;28;20031;-75
2022/05/12 06:52:19;;;;;;;11.82;8.23;;;;;;;16.67;45.65;94443.06;4962070;28;20030;-74
2022/05/12 06:54:45;;;;;;;15.00;8.05;;;;;;;17.38;44.79;94442.53;4962054;28;20669;-74
2022/05/12 06:57:12;;;;;;;10.75;7.93;;;;;;;17.69;44.51;94434.59;4963027;28;20649;-74
2022/05/12 06:59:39;;;;;;;11.20;9.15;;;;;;;18.07;43.59;94431.41;4962616;28;20780;-75
2022/05/12 07:02:05;;;;;;;11.65;8.10;;;;;;;18.22;42.69;94436.03;4960201;28;20081;-75
2022/05/12 07:04:31;;;;;;;12.68;8.07;;;;;;;17.97;43.21;94415.75;4970372;28;21006;-74
2022/05/12 07:06:57;;;;;;;11.40;8.90;;;;;;;17.82;43.73;94436.09;4965549;28;20046;-74
2022/05/12 07:09:22;;;;;;;10.10;7.55;;;;;;;17.71;43.95;94420.78;4970484;28;20518;-74
2022/05/12 07:11:48;;;;;;;16.45;9.15;;;;;;;17.45;44.55;94424.69;4968820;28;20018;-75
2022/05/12 07:14:14;;;;;;;11.25;7.28;;;;;;;16.99;45.48;94420.63;4971426;28;20494;-74
2022/05/12 07:16:42;;;;;;;13.07;7.75;;;;;;;17.25;45.56;94438.31;4969519;28;20034;-74
2022/05/12 07:19:08;;;;;;;10.10;7.78;;;;;;;17.15;45.28;94421.53;4966237;28;20057;-75
2022/05/12 07:27:05;;;;;;;9.27;6.75;;;;;;;17.33;45.58;94423.94;4963229;28;23129;-74
2022/05/12 07:29:34;;;;;;;10.35;6.85;;;;;;;17.42;45.44;94419.19;4969455;28;20156;-74
2022/05/12 07:32:01;;;;;;;12.55;6.28;;;;;;;17.33;45.63;94415.88;4962470;28;20038;-74
2022/05/12 07:34:26;;;;;;;13.10;7.18;;;;;;;17.49;45.16;94425.59;4972653;28;20038;-73
2022/05/12 07:36:53;;;;;;;13.38;7.03;;;;;;;18.03;43.79;94434.00;4962121;28;20439;-75
2022/05/12 07:39:25;;;;;;;11.80;7.55;;;;;;;17.67;44.64;94431.44;4968979;28;20652;-74
2022/05/12 07:41:52;;;;;;;9.50;7.43;;;;;;;18.21;44.15;94412.13;4970523;28;20035;-74
2022/05/12 07:44:19;;;;;;;11.77;7.28;;;;;;;17.75;44.89;94416.25;4964486;28;20026;-73
2022/05/12 07:46:45;;;;;;;8.95;6.55;;;;;;;17.72;45.34;94417.75;4973521;28;20632;-75
2022/05/12 07:49:12;;;;;;;9.82;6.45;;;;;;;17.40;44.17;94400.75;4983656;28;20050;-73
2022/05/12 07:51:37;;;;;;;10.57;7.97;;;;;;;17.88;44.18;94429.34;4992234;28;20128;-74
2022/05/12 07:54:03;;;;;;;8.85;6.82;;;;;;;18.21;43.40;94417.50;4991092;28;20544;-73
2022/05/12 07:56:31;;;;;;;11.27;7.32;;;;;;;18.14;43.68;94412.72;4990648;28;20108;-73
2022/05/12 07:58:58;;;;;;;15.43;7.00;;;;;;;17.99;44.50;94395.44;4987958;28;20041;-74
2022/05/12 08:01:25;;;;;;;10.68;5.72;;;;;;;18.01;43.56;94403.16;4974417;28;20117;-75
2022/05/12 08:03:51;;;;;;;9.52;6.55;;;;;;;18.35;43.98;94413.25;4969873;28;20034;-74
2022/05/12 08:06:17;;;;;;;9.88;6.68;;;;;;;18.32;43.74;94413.97;4969363;28;20468;-73
2022/05/12 08:08:43;;;;;;;11.32;6.70;;;;;;;18.69;42.38;94411.78;4970370;28;20127;-74
2022/05/12 08:11:10;;;;;;;8.98;6.82;;;;;;;18.64;41.53;94366.25;4967150;28;20041;-73
2022/05/12 08:13:37;;;;;;;13.32;6.75;;;;;;;19.07;41.34;94402.25;4969202;28;20487;-74
2022/05/12 08:16:04;;;;;;;15.90;7.28;;;;;;;18.87;41.37;94412.22;4975384;28;20041;-74
2022/05/12 08:18:31;;;;;;;9.18;6.60;;;;;;;18.75;42.08;94406.94;4969153;28;20134;-74
2022/05/12 08:20:57;;;;;;;8.98;7.30;;;;;;;19.25;42.25;94406.91;4967497;28;20044;-74
2022/05/12 08:23:22;;;;;;;15.68;7.93;;;;;;;19.01;41.38;94412.53;4971105;28;20034;-73
2022/05/12 08:25:49;;;;;;;9.23;7.68;;;;;;;19.36;41.75;94407.09;4971357;28;20046;-75
2022/05/12 08:28:18;;;;;;;9.50;7.07;;;;;;;18.99;42.13;94408.63;4968283;28;20712;-75
2022/05/12 08:30:44;;;;;;;15.10;7.95;;;;;;;18.87;41.46;94418.38;4969016;28;20039;-73
2022/05/12 08:33:10;;;;;;;11.93;8.35;;;;;;;19.00;41.28;94391.31;4972167;28;20034;-74
2022/05/12 08:35:36;;;;;;;10.05;7.47;;;;;;;19.03;41.57;94387.91;4968538;28;20386;-74
2022/05/12 08:38:01;;;;;;;11.07;8.32;;;;;;;19.08;40.96;94398.41;4967800;28;20034;-74
2022/05/12 08:41:05;;;;;;;12.23;7.90;;;;;;;19.38;39.76;94404.06;4968984;28;20053;-74
2022/05/12 08:43:45;;;;;;;11.57;7.18;;;;;;;19.24;38.55;94353.31;4943694;28;20483;-75
2022/05/12 08:46:43;;;;;;;12.43;7.43;;;;;;;18.95;40.33;94402.38;4976150;28;20387;-74
2022/05/12 08:49:17;;;;;;;14.00;8.43;;;;;;;19.07;40.45;94404.94;4983705;28;20573;-75
2022/05/12 08:51:47;;;;;;;8.85;6.68;;;;;;;19.53;39.45;94405.94;4963318;28;20592;-74
2022/05/12 08:54:18;;;;;;;13.43;6.07;;;;;;;19.54;39.28;94392.09;4967796;28;20038;-75
2022/05/12 08:56:43;;;;;;;7.47;6.20;;;;;;;19.07;38.94;94396.84;4966084;28;20030;-74
2022/05/12 08:59:09;;;;;;;5.53;4.85;;;;;;;19.10;38.50;94399.66;4961675;28;20293;-74
2022/05/12 09:01:44;;;;;;;8.23;4.65;;;;;;;19.38;38.75;94401.38;4985199;28;20124;-74
2022/05/12 09:04:34;;;;;;;8.77;5.45;;;;;;;19.58;37.32;94402.97;4989829;28;20422;-74
2022/05/12 09:07:27;;;;;;;6.15;4.43;;;;;;;19.79;37.79;94403.38;5002750;28;20042;-74
2022/05/12 09:10:02;;;;;;;7.88;5.03;;;;;;;19.96;37.80;94391.34;4986494;28;20521;-75
2022/05/12 09:12:47;;;;;;;5.93;4.07;;;;;;;19.82;37.15;94389.16;4989406;28;20052;-74
2022/05/12 09:15:31;;;;;;;5.10;4.07;;;;;;;19.77;37.89;94394.84;4974721;28;20046;-75
2022/05/12 09:17:59;;;;;;;6.25;4.35;;;;;;;20.12;36.46;94400.91;4964885;28;20046;-76
2022/05/12 09:20:30;;;;;;;5.47;4.30;;;;;;;20.12;35.40;94392.03;4971570;28;20118;-74
2022/05/12 09:22:57;;;;;;;4.85;3.58;;;;;;;20.03;35.02;94372.59;4972634;28;20525;-75
2022/05/12 09:25:34;;;;;;;5.32;4.10;;;;;;;20.19;35.34;94394.88;4984355;28;20030;-75
2022/05/12 09:28:17;;;;;;;4.32;3.55;;;;;;;19.92;36.04;94396.69;4987184;28;20034;-74
2022/05/12 09:30:43;;;;;;;4.35;3.53;;;;;;;20.13;35.98;94391.69;4983787;28;20041;-75
2022/05/12 09:33:09;;;;;;;6.47;3.92;;;;;;;20.02;36.10;94385.31;4983550;28;20465;-74
2022/05/12 09:35:35;;;;;;;4.43;3.53;;;;;;;20.22;35.63;94394.16;4989390;28;20704;-74
2022/05/12 09:38:23;;;;;;;3.35;3.05;;;;;;;20.11;35.82;94393.16;4985990;28;20455;-74
2022/05/12 09:40:49;;;;;;;5.55;3.47;;;;;;;20.33;36.07;94387.03;4989365;28;20771;-73
2022/05/12 09:43:28;;;;;;;8.10;3.90;;;;;;;20.49;34.90;94381.47;4987074;28;20526;-76
2022/05/12 09:46:03;;;;;;;4.35;3.15;;;;;;;20.31;34.34;94392.00;4986158;28;20056;-75
2022/05/12 09:48:31;;;;;;;4.90;3.75;;;;;;;20.37;33.77;94387.88;4977896;28;21296;-75
2022/05/12 09:51:24;;;;;;;4.15;3.42;;;;;;;20.50;34.34;94378.41;4986862;28;20026;-75
2022/05/12 09:53:55;;;;;;;3.03;2.72;;;;;;;20.06;35.41;94374.56;4962569;28;20415;-74
2022/05/12 09:56:31;;;;;;;4.18;3.75;;;;;;;20.13;35.67;94380.88;4966056;28;20037;-74
2022/05/12 09:59:08;;;;;;;5.90;3.10;;;;;;;20.34;35.84;94379.69;4987675;28;20042;-74
2022/05/12 10:01:48;;;;;;;3.13;2.78;;;;;;;20.43;35.50;94378.31;4978378;28;20506;-74
2022/05/12 10:10:10;;;;;;;3.25;2.95;;;;;;;19.81;35.65;94362.53;4982724;28;20045;-74
2022/05/12 10:13:03;;;;;;;5.70;3.65;;;;;;;20.26;35.94;94357.19;4980487;28;20042;-76
2022/05/12 10:15:30;;;;;;;6.57;3.20;;;;;;;20.45;35.82;94359.81;4984696;28;20117;-75
2022/05/12 10:18:03;;;;;;;3.40;3.10;;;;;;;20.55;34.07;94355.72;4973630;28;20042;-73
2022/05/12 10:20:36;;;;;;;3.28;2.92;;;;;;;20.28;34.08;94343.34;4992442;28;20030;-72
2022/05/12 10:23:25;;;;;;;3.90;3.35;;;;;;;20.07;35.05;94327.53;4980401;28;20524;-73
2022/05/12 10:26:14;;;;;;;3.53;3.22;;;;;;;20.21;34.80;94343.19;4978742;28;20038;-73
2022/05/12 10:28:46;;;;;;;6.25;4.45;;;;;;;20.38;33.76;94342.72;4988899;28;20370;-74
2022/05/12 10:31:33;;;;;;;4.68;3.38;;;;;;;20.48;33.90;94334.00;4982860;28;20083;-74
2022/05/12 10:34:07;;;;;;;3.60;2.60;;;;;;;20.50;33.92;94335.19;4987834;28;20156;-74
2022/05/12 10:37:10;;;;;;;5.30;3.13;;;;;;;20.60;34.61;94323.75;4986950;28;20096;-72
2022/05/12 10:39:46;;;;;;;3.00;2.58;;;;;;;20.95;33.84;94318.09;4942758;28;20034;-74
2022/05/12 10:43:00;;;;;;;3.33;2.80;;;;;;;21.10;32.34;94312.88;4977012;28;20132;-75
2022/05/12 10:45:44;;;;;;;3.40;2.85;;;;;;;21.21;32.84;94313.78;4967017;28;20042;-75
2022/05/12 10:48:13;;;;;;;4.53;2.88;;;;;;;21.34;32.19;94313.19;4988052;28;20042;-74
2022/05/12 10:50:53;;;;;;;5.10;2.60;;;;;;;21.16;29.67;94290.56;4988846;28;20337;-74
2022/05/12 10:53:37;;;;;;;2.70;2.00;;;;;;;21.13;29.71;94312.13;4984002;28;20076;-73
2022/05/12 10:56:18;;;;;;;3.05;2.60;;;;;;;21.29;30.38;94310.81;4989894;28;20129;-74
2022/05/12 10:59:07;;;;;;;2.42;2.05;;;;;;;20.98;30.04;94303.84;4986500;28;20073;-74
2022/05/12 11:01:37;;;;;;;3.10;2.50;;;;;;;21.36;30.74;94291.94;4980723;28;20672;-75
2022/05/12 11:04:41;;;;;;;3.00;2.50;;;;;;;21.01;31.54;94299.63;4991030;28;20056;-72
2022/05/12 11:07:33;;;;;;;4.68;3.47;;;;;;;21.05;31.20;94300.47;4959649;28;20064;-73
2022/05/12 11:10:05;;;;;;;3.85;3.03;;;;;;;20.93;31.50;94297.97;4988858;28;20045;-74
2022/05/12 11:12:44;;;;;;;3.90;2.60;;;;;;;20.97;31.61;94288.00;4986995;28;20426;-72
2022/05/12 11:15:24;;;;;;;3.38;2.83;;;;;;;20.81;30.47;94284.66;4988973;28;20046;-74
2022/05/12 11:18:16;;;;;;;3.03;2.65;;;;;;;21.17;31.02;94288.63;4990704;28;20060;-73
2022/05/12 11:20:49;;;;;;;5.70;3.00;;;;;;;21.26;31.75;94272.91;4983618;28;20143;-73
2022/05/12 11:23:23;;;;;;;4.05;3.28;;;;;;;21.47;31.76;94281.22;4988477;28;20034;-72
2022/05/12 11:26:18;;;;;;;3.72;3.38;;;;;;;21.47;32.09;94229.81;4981917;28;20127;-73
2022/05/12 11:32:28;;;;;;;4.82;2.78;;;;;;;21.97;31.80;94277.09;4975291;28;20053;-74
2022/05/12 11:35:17;;;;;;;5.65;2.92;;;;;;;21.88;31.86;94271.22;4972957;28;20132;-74
2022/05/12 11:37:43;;;;;;;5.78;2.83;;;;;;;21.85;31.22;94267.31;4989895;28;20044;-74
2022/05/12 11:40:12;;;;;;;5.28;4.10;;;;;;;21.50;31.95;94258.84;4983706;28;20046;-74
2022/05/12 11:45:49;;;;;;;3.03;2.45;;;;;;;21.43;31.88;94256.84;4989328;28;20061;-73
2022/05/12 11:48:40;;;;;;;4.85;2.95;;;;;;;21.06;32.29;94233.63;4981059;28;20073;-74
2022/05/12 11:51:08;;;;;;;4.45;3.13;;;;;;;21.63;32.63;94237.72;4987748;28;20033;-73
2022/05/12 11:53:48;;;;;;;3.15;2.85;;;;;;;21.92;33.22;94250.38;4988973;28;20034;-74
2022/05/12 11:56:37;;;;;;;2.75;2.47;;;;;;;22.18;31.87;94241.28;4986976;28;20038;-73
2022/05/12 11:59:37;;;;;;;3.53;3.20;;;;;;;22.37;33.92;94243.00;4979803;28;20058;-74
2022/05/12 12:02:04;;;;;;;3.05;2.70;;;;;;;22.51;32.41;94245.78;4950820;28;20053;-74
2022/05/12 12:04:41;;;;;;;3.75;3.15;;;;;;;22.57;30.49;94230.72;4983660;28;20045;-74
2022/05/12 12:07:13;;;;;;;4.18;2.90;;;;;;;22.65;30.79;94226.91;4986053;28;20533;-73